Impacts TAF Board INFO
FOR SITUATIONAL AWARENESS. NOT TO BE USED FOR FLIGHT PLANNING PURPOSES.
IDs:

KSFO - San Francisco Intl, CA, US

Issued at 2338 UTC 15 Aug 2018
Updated at 0307 UTC 16 Aug 2018
Potential Impact None Slight Moderate High
Time<<16/16Z 16/17Z 16/18Z 16/19Z 16/20Z 16/21Z 16/22Z 16/23Z 17/00Z 17/01Z 17/02Z 17/03Z 17/04Z>>
Type PRVL PRVL PRVL PRVL PRVL PRVL PRVL PRVL PRVL PRVL PRVL PRVL PRVL
VIS >6 >6 >6 >6 >6 >6 >6 >6 >6 >6 >6 >6 >6
CIG 15 15 15 -- -- -- -- -- -- -- -- -- --
Cover OVC OVC OVC SCT SCT SCT FEW FEW FEW FEW FEW FEW FEW
FltCat MVFR MVFR MVFR VFR VFR VFR VFR VFR VFR VFR VFR VFR VFR
WX -- -- -- -- -- -- -- -- -- -- -- -- --
WDir 270 270 270 320 320 320 290 290 290 290 290 290 290
WSpd 7 7 7 7 7 7 17 17 17 17 17 17 17
WGst -- -- -- -- -- -- 24 24 24 24 24 24 24

Raw TAF
KSFO 152338Z 1600/1706 27019G24KT P6SM FEW014
  FM160500 28014KT P6SM BKN014
  FM160700 27010KT P6SM OVC010
  FM161300 27007KT P6SM OVC015
  FM161900 32007KT P6SM SCT015
  FM162200 29017G24KT P6SM FEW015
  FM170500 28014KT P6SM BKN015


METAR Board
Radar Display
Forecast Discussion

FOR SITUATIONAL AWARENESS. NOT TO BE USED FOR FLIGHT PLANNING PURPOSES.